createdAt,value
2023-01-20T00:01:38.717Z,-0.20
2023-01-20T00:04:06.332Z,-0.20
2023-01-20T00:06:33.236Z,-0.10
2023-01-20T00:09:09.694Z,-0.10
2023-01-20T00:11:36.723Z,-0.10
2023-01-20T00:14:03.785Z,-0.20
2023-01-20T00:16:32.149Z,-0.20
2023-01-20T00:18:59.570Z,-0.20
2023-01-20T00:21:26.607Z,-0.20
2023-01-20T00:23:53.547Z,-0.20
2023-01-20T00:26:23.306Z,-0.20
2023-01-20T00:28:53.265Z,-0.20
2023-01-20T00:31:28.800Z,-0.20
2023-01-20T00:33:58.192Z,-0.20
2023-01-20T00:36:27.506Z,-0.20
2023-01-20T00:38:54.648Z,-0.20
2023-01-20T00:41:21.632Z,-0.20
2023-01-20T00:43:48.636Z,-0.30
2023-01-20T00:46:17.653Z,-0.30
2023-01-20T00:48:44.717Z,-0.40
2023-01-20T00:51:12.154Z,-0.40
2023-01-20T00:53:39.212Z,-0.50
2023-01-20T00:56:06.938Z,-0.50
2023-01-20T00:58:34.102Z,-0.60
2023-01-20T01:01:01.851Z,-0.50
2023-01-20T01:03:29.410Z,-0.60
2023-01-20T01:06:06.548Z,-0.60
2023-01-20T01:08:34.384Z,-0.70
2023-01-20T01:11:01.628Z,-0.70
2023-01-20T01:13:28.550Z,-0.70
2023-01-20T01:15:55.588Z,-0.80
2023-01-20T01:18:22.684Z,-0.70
2023-01-20T01:20:49.705Z,-0.80
2023-01-20T01:23:16.776Z,-0.80
2023-01-20T01:25:43.701Z,-0.80
2023-01-20T01:28:10.669Z,-0.90
2023-01-20T01:30:37.608Z,-0.90
2023-01-20T01:33:04.780Z,-0.90
2023-01-20T01:35:31.775Z,-0.90
2023-01-20T01:37:58.709Z,-0.90
2023-01-20T01:40:25.719Z,-0.90
2023-01-20T01:42:52.762Z,-0.90
2023-01-20T01:45:24.101Z,-0.90
2023-01-20T01:48:03.259Z,-0.90
2023-01-20T01:50:47.433Z,-0.90
2023-01-20T01:53:15.123Z,-1.00
2023-01-20T01:55:47.639Z,-1.00
2023-01-20T01:58:17.876Z,-1.00
2023-01-20T02:00:45.667Z,-1.00
2023-01-20T02:03:13.274Z,-1.00
2023-01-20T02:05:42.849Z,-1.00
2023-01-20T02:08:10.003Z,-1.10
2023-01-20T02:10:36.960Z,-1.10
2023-01-20T02:13:04.541Z,-1.10
2023-01-20T02:15:42.542Z,-1.10
2023-01-20T02:18:36.124Z,-1.10
2023-01-20T04:23:28.258Z,-1.30
2023-01-20T04:25:55.262Z,-1.20
2023-01-20T04:28:22.194Z,-1.20
2023-01-20T04:30:49.340Z,-1.30
2023-01-20T04:33:16.347Z,-1.20
2023-01-20T04:35:43.329Z,-1.30
2023-01-20T04:38:10.446Z,-1.30
2023-01-20T04:40:37.409Z,-1.30
2023-01-20T04:43:06.636Z,-1.30
2023-01-20T04:45:41.750Z,-1.30
2023-01-20T04:48:09.491Z,-1.30
2023-01-20T04:50:48.319Z,-1.30
2023-01-20T04:53:19.154Z,-1.20
2023-01-20T04:55:46.867Z,-1.20
2023-01-20T04:58:14.051Z,-1.20
2023-01-20T05:00:43.474Z,-1.30
2023-01-20T05:03:10.713Z,-1.20
2023-01-20T05:05:37.700Z,-1.20
2023-01-20T05:08:04.980Z,-1.10
2023-01-20T05:10:35.579Z,-1.10
2023-01-20T05:13:02.607Z,-1.10
2023-01-20T05:15:29.627Z,-1.10
2023-01-20T05:17:56.622Z,-1.10
2023-01-20T05:20:23.647Z,-1.10
2023-01-20T05:22:50.652Z,-1.10
2023-01-20T05:25:17.571Z,-1.10
2023-01-20T05:27:45.154Z,-1.10
2023-01-20T05:30:12.778Z,-1.10
2023-01-20T05:32:39.738Z,-1.10
2023-01-20T05:35:07.395Z,-1.10
2023-01-20T05:37:34.329Z,-1.10
2023-01-20T05:40:01.267Z,-1.10
2023-01-20T05:42:28.280Z,-1.10
2023-01-20T05:44:55.222Z,-1.10
2023-01-20T05:47:22.193Z,-1.10
2023-01-20T05:49:49.183Z,-1.10
2023-01-20T05:52:16.298Z,-1.10
2023-01-20T05:54:43.341Z,-1.10
2023-01-20T05:57:17.941Z,-1.00
2023-01-20T05:59:47.842Z,-1.10
2023-01-20T06:02:18.824Z,-1.10
2023-01-20T06:04:46.947Z,-1.10
2023-01-20T06:07:14.673Z,-1.20
2023-01-20T06:09:42.038Z,-1.20
2023-01-20T06:12:09.084Z,-1.20
2023-01-20T06:14:36.038Z,-1.20
2023-01-20T06:17:03.048Z,-1.20
2023-01-20T06:19:30.009Z,-1.20
2023-01-20T06:21:56.980Z,-1.20
2023-01-20T06:24:23.915Z,-1.20
2023-01-20T06:26:51.608Z,-1.20
2023-01-20T06:29:18.602Z,-1.10
2023-01-20T06:31:45.778Z,-1.10
2023-01-20T06:34:13.138Z,-1.10
2023-01-20T06:36:40.211Z,-1.00
2023-01-20T06:39:07.429Z,-0.90
2023-01-20T06:41:34.636Z,-0.90
2023-01-20T06:44:01.770Z,-0.90
2023-01-20T06:46:28.982Z,-0.90
2023-01-20T06:49:00.530Z,-0.80
2023-01-20T06:51:30.225Z,-0.80
2023-01-20T06:53:57.797Z,-0.80
2023-01-20T06:56:25.000Z,-0.80
2023-01-20T06:58:52.252Z,-0.80
2023-01-20T07:01:23.552Z,-0.80
2023-01-20T07:03:51.182Z,-0.80
2023-01-20T07:06:30.053Z,-0.80
2023-01-20T07:08:58.892Z,-0.70
2023-01-20T07:11:26.359Z,-0.70
2023-01-20T07:13:53.373Z,-0.70
2023-01-20T07:16:20.493Z,-0.70
2023-01-20T07:18:49.507Z,-0.60
2023-01-20T07:21:28.910Z,-0.60
2023-01-20T07:23:55.953Z,-0.50
2023-01-20T07:26:27.189Z,-0.50
2023-01-20T07:28:54.248Z,-0.50
2023-01-20T07:31:23.869Z,-0.40
2023-01-20T07:33:51.469Z,-0.40
2023-01-20T07:36:19.094Z,-0.30
2023-01-20T07:38:53.217Z,-0.30
2023-01-20T07:41:21.243Z,-0.20
2023-01-20T07:43:50.745Z,-0.20
2023-01-20T07:46:18.636Z,-0.20
2023-01-20T07:48:45.617Z,-0.10
2023-01-20T07:51:14.680Z,-0.10
2023-01-20T07:53:46.712Z,0.00
2023-01-20T07:56:23.394Z,0.00
2023-01-20T07:58:50.862Z,0.00
2023-01-20T08:01:21.406Z,0.10
2023-01-20T08:03:48.950Z,0.20
2023-01-20T08:06:18.163Z,0.20
2023-01-20T08:08:45.820Z,0.30
2023-01-20T08:11:14.507Z,0.40
2023-01-20T08:13:41.887Z,0.50
2023-01-20T08:16:11.599Z,0.60
2023-01-20T08:18:39.070Z,0.70
2023-01-20T08:21:08.494Z,0.80
2023-01-20T08:23:36.479Z,0.90
2023-01-20T08:26:07.455Z,1.00
2023-01-20T08:28:36.010Z,1.00
2023-01-20T08:31:11.833Z,1.10
2023-01-20T08:33:39.689Z,1.10
2023-01-20T08:36:11.609Z,1.10
2023-01-20T08:38:39.905Z,1.10
2023-01-20T08:41:12.958Z,1.20
2023-01-20T08:43:40.504Z,1.20
2023-01-20T08:46:11.088Z,1.30
2023-01-20T08:48:39.512Z,1.30
2023-01-20T08:51:09.948Z,1.30
2023-01-20T08:53:36.985Z,1.30
2023-01-20T08:56:04.621Z,1.40
2023-01-20T08:58:31.807Z,1.40
2023-01-20T09:00:58.879Z,1.50
2023-01-20T09:03:26.533Z,1.50
2023-01-20T09:05:53.704Z,1.50
2023-01-20T09:08:21.054Z,1.60
2023-01-20T09:10:48.048Z,1.70
2023-01-20T09:13:14.983Z,1.70
2023-01-20T09:15:42.073Z,1.80
2023-01-20T09:18:09.053Z,1.80
2023-01-20T09:20:36.084Z,1.80
2023-01-20T09:23:03.268Z,1.80
2023-01-20T09:25:30.468Z,1.80
2023-01-20T09:28:01.564Z,1.90
2023-01-20T09:30:28.898Z,1.80
2023-01-20T09:32:58.415Z,1.90
2023-01-20T09:35:26.002Z,1.90
2023-01-20T09:38:12.321Z,2.00
2023-01-20T09:41:15.794Z,2.00
2023-01-20T09:43:55.894Z,2.20
2023-01-20T09:46:40.714Z,2.30
2023-01-20T09:49:41.346Z,2.50
2023-01-20T09:52:42.000Z,2.60
2023-01-20T09:55:19.702Z,2.80
2023-01-20T09:57:59.228Z,3.00
2023-01-20T10:00:31.651Z,3.10
2023-01-20T10:03:16.422Z,3.30
2023-01-20T10:05:44.954Z,3.50
2023-01-20T10:08:14.988Z,3.60
2023-01-20T10:11:12.857Z,3.60
2023-01-20T10:13:51.466Z,3.70
2023-01-20T10:16:35.118Z,3.80
2023-01-20T10:19:08.567Z,3.90
2023-01-20T10:21:45.804Z,3.70
2023-01-20T10:24:33.859Z,3.60
2023-01-20T10:27:04.992Z,3.60
2023-01-20T10:29:55.670Z,3.50
2023-01-20T10:32:37.158Z,3.30
2023-01-20T10:35:18.415Z,3.20
2023-01-20T10:37:45.733Z,3.20
2023-01-20T10:40:41.237Z,3.10
2023-01-20T10:43:14.210Z,3.10
2023-01-20T10:46:03.874Z,3.10
2023-01-20T10:48:39.792Z,3.20
2023-01-20T10:51:33.385Z,3.40
2023-01-20T10:54:09.349Z,3.30
2023-01-20T10:56:53.834Z,3.40
2023-01-20T10:59:37.745Z,3.30
2023-01-20T11:02:30.592Z,3.30
2023-01-20T11:04:59.100Z,3.30
2023-01-20T11:07:27.148Z,3.40
2023-01-20T11:09:54.202Z,3.50
2023-01-20T11:12:28.509Z,3.60
2023-01-20T11:14:59.772Z,3.70
2023-01-20T11:17:26.973Z,3.90
2023-01-20T11:19:58.578Z,4.00
2023-01-20T11:22:34.872Z,4.10
2023-01-20T11:25:04.267Z,4.20
2023-01-20T11:27:58.256Z,4.30
2023-01-20T11:30:29.717Z,4.20
2023-01-20T11:33:26.408Z,4.20
2023-01-20T11:36:06.385Z,4.00
2023-01-20T11:38:43.283Z,3.80
2023-01-20T11:41:31.049Z,3.70
2023-01-20T11:43:59.853Z,3.70
2023-01-20T11:46:33.066Z,3.60
2023-01-20T11:49:17.132Z,3.50
2023-01-20T11:51:56.746Z,3.50
2023-01-20T11:54:28.678Z,3.40
2023-01-20T11:57:05.610Z,3.40
2023-01-20T11:59:35.122Z,3.50
2023-01-20T12:02:24.255Z,3.60
2023-01-20T12:05:17.147Z,3.60
2023-01-20T12:07:44.042Z,3.70
2023-01-20T12:10:20.495Z,3.70
2023-01-20T12:13:07.665Z,3.50
2023-01-20T12:15:41.775Z,3.40
2023-01-20T12:18:15.476Z,3.30
2023-01-20T12:20:59.169Z,3.20
2023-01-20T12:23:46.232Z,3.10
2023-01-20T12:26:15.825Z,3.00
2023-01-20T12:28:49.564Z,2.90
2023-01-20T12:31:20.324Z,2.80
2023-01-20T12:33:53.499Z,2.70
2023-01-20T12:37:13.439Z,2.60
2023-01-20T12:40:13.329Z,2.60
2023-01-20T12:42:58.816Z,2.50
2023-01-20T12:45:57.469Z,2.50
2023-01-20T12:48:51.628Z,2.40
2023-01-20T12:51:42.464Z,2.40
2023-01-20T12:54:21.213Z,2.30
2023-01-20T12:57:03.396Z,2.20
2023-01-20T12:59:44.396Z,2.20
2023-01-20T13:02:42.256Z,2.20
2023-01-20T13:05:24.148Z,2.10
2023-01-20T13:08:03.907Z,2.00
2023-01-20T13:11:28.503Z,2.00
2023-01-20T13:14:10.058Z,2.00
2023-01-20T13:16:49.046Z,1.90
2023-01-20T13:19:24.800Z,1.90
2023-01-20T13:22:06.943Z,1.80
2023-01-20T13:24:35.568Z,1.80
2023-01-20T13:27:03.343Z,1.80
2023-01-20T13:29:36.488Z,1.70
2023-01-20T13:32:05.012Z,1.70
2023-01-20T13:34:35.041Z,1.60
2023-01-20T13:37:09.664Z,1.60
2023-01-20T13:42:55.385Z,1.40
2023-01-20T13:45:24.601Z,1.40
2023-01-20T13:48:06.353Z,1.30
2023-01-20T13:50:37.520Z,1.30
2023-01-20T13:53:14.141Z,1.20
2023-01-20T13:55:41.075Z,1.10
2023-01-20T13:58:20.687Z,1.00
2023-01-20T14:00:56.384Z,1.00
2023-01-20T14:03:28.098Z,0.90
2023-01-20T14:06:23.699Z,0.90
2023-01-20T14:08:51.724Z,0.80
2023-01-20T14:11:23.818Z,0.80
2023-01-20T14:14:05.911Z,0.80
2023-01-20T14:16:35.623Z,0.70
2023-01-20T14:19:14.962Z,0.70
2023-01-20T14:21:43.227Z,0.60
2023-01-20T14:24:43.612Z,0.60
2023-01-20T14:27:19.697Z,0.60
2023-01-20T14:29:48.573Z,0.50
2023-01-20T14:32:30.633Z,0.50
2023-01-20T14:34:58.459Z,0.50
2023-01-20T14:37:25.454Z,0.50
2023-01-20T14:40:19.223Z,0.40
2023-01-20T14:43:24.457Z,0.40
2023-01-20T14:45:52.717Z,0.40
2023-01-20T14:48:33.804Z,0.30
2023-01-20T14:51:04.348Z,0.30
2023-01-20T14:53:31.398Z,0.40
2023-01-20T14:56:04.151Z,0.40
2023-01-20T14:58:31.673Z,0.40
2023-01-20T15:01:04.255Z,0.40
2023-01-20T15:03:32.425Z,0.40
2023-01-20T15:06:09.518Z,0.30
2023-01-20T15:08:37.394Z,0.30
2023-01-20T15:11:16.661Z,0.20
2023-01-20T15:14:08.795Z,0.10
2023-01-20T15:16:49.661Z,0.10
2023-01-20T15:19:16.799Z,0.00
2023-01-20T15:21:54.716Z,-0.10
2023-01-20T15:24:23.011Z,-0.10
2023-01-20T15:26:52.783Z,-0.20
2023-01-20T15:29:28.435Z,-0.20
2023-01-20T15:31:57.475Z,-0.20
2023-01-20T15:34:25.929Z,-0.20
2023-01-20T15:36:54.252Z,-0.20
2023-01-20T15:39:23.780Z,-0.20
2023-01-20T15:41:57.328Z,-0.20
2023-01-20T15:44:25.674Z,-0.10
2023-01-20T15:46:55.942Z,-0.10
2023-01-20T15:49:25.431Z,0.00
2023-01-20T15:51:52.750Z,0.10
2023-01-20T15:54:19.755Z,0.10
2023-01-20T15:56:46.821Z,0.10
2023-01-20T15:59:18.873Z,0.10
2023-01-20T16:01:50.462Z,0.00
2023-01-20T16:04:17.897Z,0.00
2023-01-20T16:06:45.527Z,0.00
2023-01-20T16:09:22.759Z,-0.10
2023-01-20T16:11:49.689Z,-0.20
2023-01-20T16:14:16.771Z,-0.20
2023-01-20T16:16:44.726Z,-0.30
2023-01-20T16:19:15.474Z,-0.40
2023-01-20T16:21:45.164Z,-0.40
2023-01-20T16:24:13.266Z,-0.40
2023-01-20T16:26:46.842Z,-0.50
2023-01-20T16:29:13.832Z,-0.40
2023-01-20T16:31:40.877Z,-0.40
2023-01-20T16:34:08.422Z,-0.40
2023-01-20T16:36:35.355Z,-0.40
2023-01-20T16:39:02.315Z,-0.50
2023-01-20T16:41:31.012Z,-0.50
2023-01-20T16:43:58.629Z,-0.60
2023-01-20T16:46:31.747Z,-0.70
2023-01-20T16:49:03.598Z,-0.70
2023-01-20T16:51:31.872Z,-0.70
2023-01-20T16:53:59.777Z,-0.80
2023-01-20T16:56:30.149Z,-0.80
2023-01-20T16:58:59.087Z,-0.90
2023-01-20T17:01:26.751Z,-0.90
2023-01-20T17:03:54.789Z,-0.90
2023-01-20T17:06:24.877Z,-0.90
2023-01-20T17:08:54.071Z,-0.90
2023-01-20T17:11:25.067Z,-1.00
2023-01-20T17:13:52.591Z,-0.90
2023-01-20T17:16:20.725Z,-0.90
2023-01-20T17:18:52.306Z,-0.90
2023-01-20T17:21:21.391Z,-1.00
2023-01-20T17:23:53.047Z,-1.10
2023-01-20T17:26:20.920Z,-1.10
2023-01-20T17:28:48.443Z,-1.10
2023-01-20T17:31:15.508Z,-1.20
2023-01-20T17:33:46.664Z,-1.20
2023-01-20T17:36:13.725Z,-1.30
2023-01-20T17:38:40.651Z,-1.30
2023-01-20T17:41:08.598Z,-1.40
2023-01-20T17:43:37.885Z,-1.50
2023-01-20T17:46:23.363Z,-1.50
2023-01-20T17:48:51.273Z,-1.60
2023-01-20T17:51:20.562Z,-1.70
2023-01-20T17:53:48.399Z,-1.80
2023-01-20T17:56:16.272Z,-1.90
2023-01-20T17:58:44.465Z,-1.90
2023-01-20T18:01:15.647Z,-2.00
2023-01-20T18:03:46.389Z,-2.00
2023-01-20T18:06:16.243Z,-2.10
2023-01-20T18:08:43.812Z,-2.10
2023-01-20T18:11:15.112Z,-2.10
2023-01-20T18:13:44.998Z,-2.10
2023-01-20T18:16:14.364Z,-2.00
2023-01-20T18:18:43.414Z,-2.00
2023-01-20T18:21:15.849Z,-2.00
2023-01-20T18:23:44.321Z,-2.10
2023-01-20T18:26:13.912Z,-2.10
2023-01-20T18:28:41.940Z,-2.20
2023-01-20T18:31:12.337Z,-2.30
2023-01-20T18:33:44.855Z,-2.40
2023-01-20T18:36:15.045Z,-2.40
2023-01-20T18:38:45.587Z,-2.40
2023-01-20T18:41:14.370Z,-2.50
2023-01-20T18:43:41.867Z,-2.50
2023-01-20T18:46:09.718Z,-2.50
2023-01-20T18:48:40.971Z,-2.50
2023-01-20T18:51:10.369Z,-2.50
2023-01-20T18:53:37.952Z,-2.50
2023-01-20T18:56:08.709Z,-2.60
2023-01-20T18:58:36.194Z,-2.60
2023-01-20T19:01:12.274Z,-2.60
2023-01-20T19:03:39.921Z,-2.50
2023-01-20T19:06:11.242Z,-2.50
2023-01-20T19:08:39.831Z,-2.50
2023-01-20T19:11:10.530Z,-2.50
2023-01-20T19:13:37.360Z,-2.50
2023-01-20T19:16:06.082Z,-2.60
2023-01-20T19:18:33.034Z,-2.60
2023-01-20T19:21:11.989Z,-2.60
2023-01-20T19:23:39.508Z,-2.70
2023-01-20T19:26:08.959Z,-2.70
2023-01-20T19:28:36.395Z,-2.80
2023-01-20T19:31:12.215Z,-2.90
2023-01-20T19:33:39.936Z,-2.90
2023-01-20T19:36:10.471Z,-3.00
2023-01-20T19:38:38.159Z,-3.00
2023-01-20T19:41:11.222Z,-3.00
2023-01-20T19:43:39.006Z,-2.90
2023-01-20T19:46:18.718Z,-2.80
2023-01-20T19:48:45.856Z,-2.80
2023-01-20T19:51:16.746Z,-2.80
2023-01-20T19:53:44.600Z,-2.70
2023-01-20T19:56:17.263Z,-2.70
2023-01-20T19:58:45.776Z,-2.70
2023-01-20T20:01:18.198Z,-2.80
2023-01-20T20:03:46.045Z,-2.80
2023-01-20T20:06:33.260Z,-2.80
2023-01-20T20:09:05.218Z,-2.90
2023-01-20T20:11:33.116Z,-3.00
2023-01-20T20:14:02.261Z,-3.00
2023-01-20T20:16:32.122Z,-3.10
2023-01-20T20:18:59.699Z,-3.10
2023-01-20T20:21:27.803Z,-3.20
2023-01-20T20:23:57.530Z,-3.30
2023-01-20T20:26:27.704Z,-3.30
2023-01-20T20:28:54.703Z,-3.30
2023-01-20T20:31:29.132Z,-3.40
2023-01-20T20:34:01.086Z,-3.40
2023-01-20T20:36:31.111Z,-3.30
2023-01-20T20:38:58.900Z,-3.30
2023-01-20T20:41:29.078Z,-3.20
2023-01-20T20:43:56.745Z,-3.20
2023-01-20T20:46:24.128Z,-3.20
2023-01-20T20:48:54.828Z,-3.20
2023-01-20T20:51:23.873Z,-3.20
2023-01-20T20:53:57.895Z,-3.20
2023-01-20T20:56:28.045Z,-3.20
2023-01-20T20:59:01.952Z,-3.20
2023-01-20T21:01:33.034Z,-3.30
2023-01-20T21:04:18.133Z,-3.30
2023-01-20T21:06:45.191Z,-3.30
2023-01-20T21:09:12.124Z,-3.30
2023-01-20T21:11:39.401Z,-3.30
2023-01-20T21:14:07.669Z,-3.40
2023-01-20T21:16:34.688Z,-3.40
2023-01-20T21:19:01.731Z,-3.40
2023-01-20T21:21:29.936Z,-3.50
2023-01-20T21:23:58.751Z,-3.50
2023-01-20T21:26:30.048Z,-3.60
2023-01-20T21:29:01.969Z,-3.70
2023-01-20T21:31:31.012Z,-3.70
2023-01-20T21:33:59.005Z,-3.80
2023-01-20T21:36:28.768Z,-3.80
2023-01-20T21:38:56.046Z,-3.80
2023-01-20T21:41:23.013Z,-3.80
2023-01-20T21:44:08.647Z,-3.90
2023-01-20T21:46:39.241Z,-3.80
2023-01-20T21:49:28.256Z,-3.80
2023-01-20T21:52:14.655Z,-3.80
2023-01-20T21:54:41.894Z,-3.90
2023-01-20T21:57:16.833Z,-3.90
2023-01-20T21:59:43.835Z,-4.00
2023-01-20T22:02:13.534Z,-3.90
2023-01-20T22:04:41.110Z,-3.90
2023-01-20T22:07:08.300Z,-3.90
2023-01-20T22:09:35.272Z,-4.00
2023-01-20T23:10:47.743Z,-4.50
2023-01-20T23:13:17.352Z,-4.50
2023-01-20T23:15:44.622Z,-4.50
2023-01-20T23:18:12.389Z,-4.50
2023-01-20T23:20:39.785Z,-4.50
2023-01-20T23:23:07.095Z,-4.40
2023-01-20T23:25:34.255Z,-4.40
2023-01-20T23:28:01.265Z,-4.40
2023-01-20T23:30:28.361Z,-4.40
2023-01-20T23:32:55.362Z,-4.40
2023-01-20T23:35:22.346Z,-4.30
2023-01-20T23:37:49.808Z,-4.30
2023-01-20T23:40:17.599Z,-4.20
2023-01-20T23:42:45.059Z,-4.00
2023-01-20T23:45:12.869Z,-3.80
2023-01-20T23:47:39.924Z,-3.70
2023-01-20T23:50:07.395Z,-3.60
2023-01-20T23:52:34.355Z,-3.60
2023-01-20T23:55:01.434Z,-3.50
2023-01-20T23:57:28.446Z,-3.60
2023-01-20T23:59:55.357Z,-3.60
